TBPB

Sir Grantley Adams International Airport

ICAO Code TBPB
IATA Code BGI
Name Sir Grantley Adams International Airport
Location Bridgetown, Christ-Church, BB
Elevation 169 Feet / 51.5 Meters
Latitude 13.07460022
Longitude -59.49250031
METAR TBPB 090900Z 08012KT 9999 SCT018 26/22 Q1012 NOSIG
Extra information Display Charts and CFS
Display NOTAMS
Runway Length Width Surface Elevation
09 11000 ft 150 ft ASP 169 ft
27 11000 ft 150 ft ASP 160 ft